createdAt,value
2023-02-08T00:00:02.093Z,71.02
2023-02-08T00:02:28.651Z,71.21
2023-02-08T00:04:55.236Z,70.89
2023-02-08T00:07:21.744Z,71.10
2023-02-08T00:09:48.380Z,71.29
2023-02-08T00:12:14.885Z,71.14
2023-02-08T00:14:41.467Z,71.39
2023-02-08T00:17:07.964Z,71.03
2023-02-08T00:19:34.496Z,70.89
2023-02-08T00:22:01.014Z,70.46
2023-02-08T00:24:27.517Z,70.58
2023-02-08T00:26:54.124Z,70.76
2023-02-08T00:29:20.694Z,70.45
2023-02-08T00:31:47.253Z,70.34
2023-02-08T00:34:13.828Z,70.71
2023-02-08T00:36:40.433Z,70.24
2023-02-08T00:39:08.212Z,70.49
2023-02-08T00:41:34.747Z,70.54
2023-02-08T00:44:01.272Z,70.43
2023-02-08T00:46:28.780Z,70.79
2023-02-08T00:48:55.317Z,70.79
2023-02-08T00:51:21.898Z,70.59
2023-02-08T00:53:49.834Z,70.75
2023-02-08T00:56:16.551Z,71.17
2023-02-08T00:58:43.691Z,71.20
2023-02-08T01:01:10.979Z,71.55
2023-02-08T01:03:39.514Z,71.29
2023-02-08T01:06:09.374Z,71.41
2023-02-08T01:08:36.743Z,71.46
2023-02-08T01:11:09.954Z,70.65
2023-02-08T01:13:38.131Z,71.17
2023-02-08T01:16:11.640Z,71.04
2023-02-08T01:18:39.653Z,71.41
2023-02-08T01:21:09.511Z,71.04
2023-02-08T01:23:36.380Z,71.37
2023-02-08T01:26:03.569Z,71.41
2023-02-08T01:28:30.124Z,71.48
2023-02-08T01:30:56.780Z,71.94
2023-02-08T01:33:23.291Z,71.33
2023-02-08T01:35:51.855Z,71.87
2023-02-08T01:38:18.805Z,71.38
2023-02-08T01:40:45.664Z,71.45
2023-02-08T01:43:32.902Z,71.37
2023-02-08T01:45:59.681Z,71.19
2023-02-08T01:48:29.671Z,71.40
2023-02-08T01:51:00.739Z,71.00
2023-02-08T01:53:28.966Z,71.39
2023-02-08T01:55:57.801Z,71.35
2023-02-08T01:58:25.468Z,71.42
2023-02-08T02:00:52.001Z,71.68
2023-02-08T02:03:20.733Z,71.84
2023-02-08T02:05:50.284Z,71.84
2023-02-08T02:08:16.853Z,71.85
2023-02-08T02:10:44.113Z,71.32
2023-02-08T02:13:15.475Z,71.13
2023-02-08T02:15:45.528Z,71.73
2023-02-08T02:18:15.628Z,71.83
2023-02-08T02:20:52.451Z,71.15
2023-02-08T02:23:37.719Z,71.18
2023-02-08T02:26:38.319Z,71.62
2023-02-08T02:29:32.895Z,71.71
2023-02-08T02:32:00.214Z,72.56
2023-02-08T02:34:31.527Z,71.85
2023-02-08T02:37:12.084Z,72.48
2023-02-08T02:40:02.932Z,71.98
2023-02-08T02:42:58.599Z,71.88
2023-02-08T02:45:33.438Z,71.81
2023-02-08T02:48:08.102Z,71.73
2023-02-08T02:50:43.653Z,71.47
2023-02-08T02:53:12.382Z,71.98
2023-02-08T02:55:42.803Z,71.56
2023-02-08T02:58:10.980Z,71.47
2023-02-08T03:00:38.055Z,72.67
2023-02-08T03:03:04.972Z,72.43
2023-02-08T03:05:31.693Z,72.72
2023-02-08T03:08:18.451Z,72.38
2023-02-08T03:10:57.065Z,72.07
2023-02-08T03:13:55.019Z,71.58
2023-02-08T03:16:32.972Z,71.51
2023-02-08T03:19:10.160Z,72.27
2023-02-08T03:21:59.046Z,71.76
2023-02-08T03:24:33.242Z,72.38
2023-02-08T03:27:33.829Z,71.52
2023-02-08T03:30:10.730Z,72.25
2023-02-08T03:32:48.375Z,71.55
2023-02-08T03:35:22.468Z,71.38
2023-02-08T03:37:58.802Z,71.52
2023-02-08T03:40:31.719Z,72.30
2023-02-08T03:43:01.547Z,71.65
2023-02-08T03:45:33.586Z,71.65
2023-02-08T03:48:03.208Z,71.78
2023-02-08T03:50:31.082Z,71.87
2023-02-08T03:52:58.105Z,71.38
2023-02-08T03:55:26.427Z,71.34
2023-02-08T03:57:59.413Z,71.42
2023-02-08T04:00:26.149Z,71.07
2023-02-08T04:02:56.396Z,71.75
2023-02-08T04:05:24.159Z,71.33
2023-02-08T04:07:51.233Z,71.81
2023-02-08T04:10:17.804Z,71.33
2023-02-08T04:12:45.010Z,71.93
2023-02-08T04:15:11.538Z,70.94
2023-02-08T04:17:38.077Z,71.32
2023-02-08T04:20:05.230Z,71.63
2023-02-08T04:22:31.711Z,72.09
2023-02-08T04:24:58.207Z,71.48
2023-02-08T04:27:24.701Z,71.67
2023-02-08T04:29:51.177Z,71.42
2023-02-08T04:32:17.714Z,71.71
2023-02-08T04:34:44.204Z,71.48
2023-02-08T04:37:11.079Z,71.73
2023-02-08T04:39:37.705Z,71.76
2023-02-08T04:42:04.229Z,71.71
2023-02-08T04:44:32.910Z,72.05
2023-02-08T04:47:00.193Z,72.06
2023-02-08T04:49:26.720Z,72.08
2023-02-08T04:51:53.283Z,72.08
2023-02-08T04:54:19.907Z,71.76
2023-02-08T04:56:46.841Z,71.99
2023-02-08T04:59:13.328Z,71.67
2023-02-08T05:01:39.891Z,71.80
2023-02-08T05:04:06.443Z,71.78
2023-02-08T05:06:33.398Z,71.54
2023-02-08T05:08:59.887Z,71.72
2023-02-08T05:11:26.689Z,71.75
2023-02-08T05:13:53.328Z,71.87
2023-02-08T05:16:19.953Z,71.83
2023-02-08T05:18:46.754Z,71.21
2023-02-08T05:21:13.543Z,71.60
2023-02-08T05:23:40.120Z,71.40
2023-02-08T05:26:11.249Z,71.25
2023-02-08T05:28:38.164Z,71.43
2023-02-08T05:31:19.698Z,71.59
2023-02-08T05:33:46.628Z,72.10
2023-02-08T05:36:13.163Z,71.79
2023-02-08T05:38:39.708Z,71.56
2023-02-08T05:41:06.368Z,71.63
2023-02-08T05:43:33.072Z,71.76
2023-02-08T05:45:59.565Z,71.37
2023-02-08T05:48:26.124Z,71.87
2023-02-08T05:50:52.626Z,72.23
2023-02-08T05:53:19.176Z,71.39
2023-02-08T05:55:46.459Z,71.71
2023-02-08T05:58:13.109Z,71.37
2023-02-08T06:00:40.357Z,71.95
2023-02-08T06:03:07.158Z,72.03
2023-02-08T06:05:33.964Z,71.60
2023-02-08T06:08:00.533Z,71.37
2023-02-08T06:10:27.047Z,71.72
2023-02-08T06:12:53.537Z,71.68
2023-02-08T06:15:20.018Z,71.33
2023-02-08T06:17:46.519Z,70.76
2023-02-08T06:20:13.059Z,71.11
2023-02-08T06:22:39.656Z,71.19
2023-02-08T06:25:06.954Z,71.03
2023-02-08T06:27:33.523Z,71.34
2023-02-08T06:30:00.115Z,70.94
2023-02-08T06:32:26.655Z,71.13
2023-02-08T06:34:53.183Z,70.78
2023-02-08T06:37:19.680Z,70.44
2023-02-08T06:39:46.209Z,70.73
2023-02-08T06:42:12.918Z,70.75
2023-02-08T06:44:48.411Z,70.51
2023-02-08T06:47:20.602Z,70.78
2023-02-08T06:49:47.118Z,70.83
2023-02-08T06:52:13.628Z,71.01
2023-02-08T06:54:40.154Z,70.63
2023-02-08T06:57:08.341Z,70.62
2023-02-08T06:59:35.155Z,70.26
2023-02-08T07:02:01.856Z,70.25
2023-02-08T07:04:28.417Z,69.97
2023-02-08T07:06:54.915Z,69.86
2023-02-08T07:09:21.656Z,69.77
2023-02-08T07:11:48.170Z,70.09
2023-02-08T07:14:15.567Z,70.32
2023-02-08T07:16:42.182Z,70.84
2023-02-08T07:19:08.812Z,71.09
2023-02-08T07:21:35.374Z,71.04
2023-02-08T07:24:01.879Z,71.58
2023-02-08T07:26:28.445Z,70.59
2023-02-08T07:28:54.978Z,69.63
2023-02-08T07:31:21.518Z,69.34
2023-02-08T07:33:48.170Z,69.30
2023-02-08T07:36:14.772Z,69.14
2023-02-08T07:38:41.272Z,68.30
2023-02-08T07:41:10.101Z,67.72
2023-02-08T07:43:38.331Z,67.62
2023-02-08T07:46:17.021Z,67.88
2023-02-08T07:48:43.608Z,67.74
2023-02-08T07:51:10.564Z,67.09
2023-02-08T07:53:37.640Z,67.14
2023-02-08T07:56:04.620Z,66.45
2023-02-08T07:58:31.124Z,66.68
2023-02-08T08:00:59.621Z,66.57
2023-02-08T08:03:26.966Z,66.14
2023-02-08T08:05:55.035Z,65.06
2023-02-08T08:08:21.569Z,64.43
2023-02-08T08:10:49.461Z,64.08
2023-02-08T08:13:16.332Z,63.61
2023-02-08T08:15:42.972Z,62.73
2023-02-08T08:18:09.496Z,62.73
2023-02-08T08:20:36.135Z,61.78
2023-02-08T08:23:02.629Z,62.27
2023-02-08T08:25:29.290Z,61.51
2023-02-08T08:27:56.127Z,61.19
2023-02-08T08:30:22.799Z,60.80
2023-02-08T08:32:49.334Z,59.91
2023-02-08T08:35:15.938Z,60.02
2023-02-08T08:37:42.493Z,60.11
2023-02-08T08:40:09.974Z,59.24
2023-02-08T08:42:36.952Z,58.85
2023-02-08T08:45:04.515Z,58.74
2023-02-08T08:47:31.387Z,58.15
2023-02-08T08:49:57.910Z,57.36
2023-02-08T08:52:24.570Z,56.30
2023-02-08T08:54:53.424Z,57.01
2023-02-08T08:57:20.027Z,56.74
2023-02-08T08:59:46.694Z,56.74
2023-02-08T09:02:14.032Z,56.91
2023-02-08T09:04:43.453Z,56.84
2023-02-08T09:07:10.826Z,56.62
2023-02-08T09:09:37.589Z,56.03
2023-02-08T09:12:04.445Z,56.02
2023-02-08T09:14:30.934Z,55.54
2023-02-08T09:16:57.544Z,55.19
2023-02-08T09:19:24.098Z,55.40
2023-02-08T09:21:50.667Z,54.86
2023-02-08T09:24:17.228Z,54.88
2023-02-08T09:26:45.944Z,55.05
2023-02-08T09:29:14.794Z,53.82
2023-02-08T09:31:42.163Z,53.60
2023-02-08T09:34:11.912Z,54.14
2023-02-08T09:36:40.465Z,53.63
2023-02-08T09:39:11.018Z,53.35
2023-02-08T09:41:56.189Z,53.11
2023-02-08T09:44:35.466Z,53.92
2023-02-08T09:47:09.869Z,53.20
2023-02-08T09:49:56.899Z,52.38
2023-02-08T09:52:29.514Z,51.92
2023-02-08T09:55:01.030Z,52.04
2023-02-08T09:57:31.931Z,51.01
2023-02-08T10:00:13.384Z,49.18
2023-02-08T10:02:41.415Z,51.14
2023-02-08T10:05:12.598Z,50.65
2023-02-08T10:07:40.776Z,50.22
2023-02-08T10:10:38.066Z,48.94
2023-02-08T10:13:19.502Z,50.18
2023-02-08T10:15:58.925Z,50.94
2023-02-08T10:18:54.808Z,49.58
2023-02-08T10:21:42.638Z,50.60
2023-02-08T10:24:12.074Z,50.78
2023-02-08T10:26:46.912Z,51.47
2023-02-08T10:29:25.255Z,51.68
2023-02-08T10:32:29.631Z,51.45
2023-02-08T10:35:06.056Z,50.96
2023-02-08T10:37:37.230Z,51.38
2023-02-08T10:40:26.300Z,50.51
2023-02-08T10:43:04.013Z,51.22
2023-02-08T10:45:38.172Z,50.44
2023-02-08T10:48:11.860Z,50.96
2023-02-08T10:50:43.806Z,51.66
2023-02-08T10:53:16.738Z,51.58
2023-02-08T10:55:46.850Z,51.86
2023-02-08T10:58:26.287Z,51.52
2023-02-08T11:00:54.056Z,51.60
2023-02-08T11:03:25.470Z,51.38
2023-02-08T11:05:53.222Z,51.83
2023-02-08T11:08:22.476Z,51.78
2023-02-08T11:10:56.441Z,50.78
2023-02-08T11:13:25.114Z,50.66
2023-02-08T11:15:56.701Z,50.62
2023-02-08T11:18:24.389Z,50.65
2023-02-08T11:20:57.480Z,50.54
2023-02-08T11:23:29.756Z,51.12
2023-02-08T11:26:15.361Z,50.76
2023-02-08T11:28:42.523Z,50.25
2023-02-08T11:31:20.317Z,50.64
2023-02-08T11:34:03.680Z,50.36
2023-02-08T11:36:32.841Z,50.81
2023-02-08T11:39:15.844Z,50.40
2023-02-08T11:41:46.428Z,49.45
2023-02-08T11:44:19.770Z,49.37
2023-02-08T11:46:48.552Z,49.32
2023-02-08T11:49:27.588Z,49.39
2023-02-08T11:51:54.345Z,49.56
2023-02-08T11:54:33.681Z,49.43
2023-02-08T11:57:11.593Z,49.50
2023-02-08T11:59:38.230Z,49.58
2023-02-08T12:02:29.323Z,48.99
2023-02-08T12:04:56.814Z,48.90
2023-02-08T12:07:46.527Z,47.53
2023-02-08T12:10:21.781Z,48.77
2023-02-08T12:13:01.184Z,47.99
2023-02-08T12:16:06.222Z,48.24
2023-02-08T12:19:10.182Z,48.51
2023-02-08T12:21:43.709Z,48.59
2023-02-08T12:24:25.605Z,48.81
2023-02-08T12:27:27.481Z,47.95
2023-02-08T12:30:23.345Z,47.91
2023-02-08T12:32:58.678Z,47.74
2023-02-08T12:35:45.859Z,47.78
2023-02-08T12:39:19.417Z,45.39
2023-02-08T12:42:00.599Z,46.99
2023-02-08T12:45:04.691Z,46.82
2023-02-08T12:48:03.651Z,45.81
2023-02-08T12:50:56.658Z,44.14
2023-02-08T12:53:31.372Z,44.63
2023-02-08T12:56:01.082Z,45.09
2023-02-08T12:58:31.463Z,44.19
2023-02-08T13:01:10.508Z,42.98
2023-02-08T13:03:55.117Z,40.18
2023-02-08T13:06:24.091Z,41.35
2023-02-08T13:09:13.989Z,41.19
2023-02-08T13:11:46.607Z,41.16
2023-02-08T13:14:38.170Z,41.27
2023-02-08T13:17:13.075Z,41.16
2023-02-08T13:19:59.752Z,39.87
2023-02-08T13:22:28.447Z,40.39
2023-02-08T13:25:06.287Z,39.33
2023-02-08T13:27:34.517Z,38.43
2023-02-08T13:30:01.923Z,39.07
2023-02-08T13:32:31.166Z,39.09
2023-02-08T13:35:01.432Z,38.50
2023-02-08T13:37:31.704Z,38.00
2023-02-08T13:40:07.850Z,38.40
2023-02-08T13:42:39.669Z,36.49
2023-02-08T13:45:08.372Z,37.19
2023-02-08T13:47:45.774Z,37.77
2023-02-08T13:50:40.258Z,37.73
2023-02-08T13:53:07.163Z,38.05
2023-02-08T13:55:45.893Z,37.64
2023-02-08T13:58:15.593Z,38.22
2023-02-08T14:00:54.771Z,39.88
2023-02-08T14:03:29.108Z,41.23
2023-02-08T14:06:17.080Z,42.06
2023-02-08T14:08:53.478Z,42.18
2023-02-08T14:11:33.956Z,42.87
2023-02-08T14:14:03.615Z,43.68
2023-02-08T14:16:38.976Z,44.04
2023-02-08T14:19:22.319Z,44.61
2023-02-08T14:22:03.901Z,45.25
2023-02-08T14:24:34.518Z,45.07
2023-02-08T14:27:22.709Z,46.27
2023-02-08T14:30:02.980Z,46.28
2023-02-08T14:32:31.531Z,47.10
2023-02-08T14:35:05.917Z,46.89
2023-02-08T14:37:36.657Z,47.03
2023-02-08T14:40:35.144Z,48.17
2023-02-08T14:43:19.908Z,47.76
2023-02-08T14:45:53.982Z,48.48
2023-02-08T14:48:49.902Z,48.85
2023-02-08T14:51:25.245Z,49.07
2023-02-08T14:53:57.681Z,49.13
2023-02-08T14:56:30.033Z,49.19
2023-02-08T14:59:06.834Z,48.87
2023-02-08T15:01:53.533Z,49.64
2023-02-08T15:04:20.576Z,49.75
2023-02-08T15:06:56.740Z,49.63
2023-02-08T15:09:27.340Z,50.13
2023-02-08T15:12:02.932Z,50.30
2023-02-08T15:14:31.824Z,50.52
2023-02-08T15:16:58.492Z,50.59
2023-02-08T15:19:34.351Z,50.63
2023-02-08T15:22:26.555Z,50.55
2023-02-08T15:25:00.113Z,51.32
2023-02-08T15:27:29.973Z,51.37
2023-02-08T15:29:57.133Z,51.28
2023-02-08T15:32:26.106Z,51.34
2023-02-08T15:34:59.102Z,51.27
2023-02-08T15:37:26.610Z,51.45
2023-02-08T15:40:01.074Z,51.85
2023-02-08T15:42:31.860Z,51.98
2023-02-08T15:45:04.878Z,52.40
2023-02-08T15:47:38.121Z,52.14
2023-02-08T15:50:07.863Z,52.00
2023-02-08T15:52:36.035Z,52.75
2023-02-08T15:55:05.788Z,52.69
2023-02-08T15:57:46.295Z,52.87
2023-02-08T16:00:18.277Z,53.01
2023-02-08T16:02:51.692Z,53.04
2023-02-08T16:05:21.856Z,52.90
2023-02-08T16:07:48.974Z,53.27
2023-02-08T16:10:34.058Z,53.86
2023-02-08T16:13:04.947Z,53.66
2023-02-08T16:15:44.946Z,53.78
2023-02-08T16:18:33.773Z,54.08
2023-02-08T16:21:02.535Z,54.13
2023-02-08T16:23:34.127Z,54.29
2023-02-08T16:26:27.562Z,54.35
2023-02-08T16:29:17.532Z,54.63
2023-02-08T16:31:46.668Z,54.51
2023-02-08T16:34:18.454Z,54.79
2023-02-08T16:36:50.390Z,54.74
2023-02-08T16:39:39.829Z,54.99
2023-02-08T16:42:22.825Z,55.33
2023-02-08T16:45:01.160Z,55.45
2023-02-08T16:47:38.722Z,55.94
2023-02-08T16:50:11.062Z,55.89
2023-02-08T16:52:37.939Z,56.44
2023-02-08T16:55:04.874Z,56.02
2023-02-08T16:57:44.643Z,56.64
2023-02-08T17:00:16.827Z,56.46
2023-02-08T17:02:43.874Z,56.43
2023-02-08T17:05:10.987Z,57.07
2023-02-08T17:07:37.563Z,56.82
2023-02-08T17:10:08.369Z,56.85
2023-02-08T17:12:37.018Z,56.86
2023-02-08T17:15:03.648Z,56.80
2023-02-08T17:17:30.949Z,57.51
2023-02-08T17:20:03.807Z,57.16
2023-02-08T17:22:30.353Z,57.79
2023-02-08T17:24:57.083Z,57.56
2023-02-08T17:27:23.664Z,57.75
2023-02-08T17:29:52.555Z,57.69
2023-02-08T17:32:19.377Z,57.54
2023-02-08T17:34:45.968Z,57.45
2023-02-08T17:37:12.483Z,57.77
2023-02-08T17:39:39.024Z,58.03
2023-02-08T17:42:05.631Z,58.19
2023-02-08T17:44:32.182Z,58.49
2023-02-08T17:46:58.826Z,58.35
2023-02-08T17:49:25.487Z,58.57
2023-02-08T17:51:52.044Z,58.38
2023-02-08T17:54:20.808Z,58.57
2023-02-08T17:56:47.359Z,58.32
2023-02-08T17:59:13.967Z,58.53
2023-02-08T18:01:40.791Z,58.86
2023-02-08T18:04:09.310Z,58.87
2023-02-08T18:06:35.870Z,58.59
2023-02-08T18:09:02.516Z,58.96
2023-02-08T18:11:29.098Z,58.81
2023-02-08T18:13:55.621Z,58.82
2023-02-08T18:16:24.464Z,58.50
2023-02-08T18:18:51.113Z,59.04
2023-02-08T18:21:21.267Z,59.10
2023-02-08T18:23:51.944Z,59.17
2023-02-08T18:26:20.835Z,59.45
2023-02-08T18:28:47.644Z,60.16
2023-02-08T18:31:16.570Z,59.59
2023-02-08T18:33:43.997Z,59.27
2023-02-08T18:36:13.490Z,59.27
2023-02-08T18:38:53.407Z,59.68
2023-02-08T18:41:32.154Z,59.49
2023-02-08T18:43:59.512Z,59.80
2023-02-08T18:46:29.551Z,59.66
2023-02-08T18:48:56.435Z,59.79
2023-02-08T18:51:24.068Z,59.86
2023-02-08T18:53:53.084Z,59.73
2023-02-08T18:56:47.643Z,60.00
2023-02-08T18:59:19.137Z,59.97
2023-02-08T19:01:45.811Z,59.77
2023-02-08T19:04:12.404Z,60.21
2023-02-08T19:06:39.016Z,60.57
2023-02-08T19:09:07.561Z,60.37
2023-02-08T19:11:36.102Z,60.58
2023-02-08T19:14:05.259Z,60.60
2023-02-08T19:16:33.390Z,60.49
2023-02-08T19:19:01.157Z,60.32
2023-02-08T19:21:28.617Z,60.38
2023-02-08T19:23:58.106Z,60.80
2023-02-08T19:26:26.565Z,60.44
2023-02-08T19:28:57.677Z,60.14
2023-02-08T19:31:28.454Z,60.59
2023-02-08T19:33:58.699Z,60.75
2023-02-08T19:36:28.865Z,60.64
2023-02-08T19:38:55.922Z,60.75
2023-02-08T19:41:25.105Z,61.04
2023-02-08T19:43:52.353Z,61.04
2023-02-08T19:46:22.287Z,60.72
2023-02-08T19:48:50.046Z,60.65
2023-02-08T19:51:17.090Z,61.06
2023-02-08T19:53:43.831Z,61.16
2023-02-08T19:56:16.013Z,61.82
2023-02-08T19:58:43.217Z,61.62
2023-02-08T20:01:13.194Z,61.78
2023-02-08T20:03:40.648Z,61.72
2023-02-08T20:06:33.586Z,61.87
2023-02-08T20:09:04.031Z,61.71
2023-02-08T20:11:54.764Z,61.15
2023-02-08T20:14:31.626Z,62.15
2023-02-08T20:16:58.891Z,62.02
2023-02-08T20:19:26.098Z,62.56
2023-02-08T20:21:52.804Z,62.21
2023-02-08T20:24:19.497Z,61.87
2023-02-08T20:26:46.714Z,61.90
2023-02-08T20:29:14.489Z,61.92
2023-02-08T20:31:43.534Z,61.79
2023-02-08T20:34:13.280Z,61.84
2023-02-08T20:36:44.084Z,61.83
2023-02-08T20:39:15.033Z,61.83
2023-02-08T20:41:44.353Z,61.66
2023-02-08T20:44:12.538Z,62.06
2023-02-08T20:46:39.130Z,61.87
2023-02-08T20:49:07.033Z,62.01
2023-02-08T20:51:34.434Z,62.32
2023-02-08T20:54:01.867Z,62.35
2023-02-08T20:56:34.170Z,62.21
2023-02-08T20:59:05.487Z,62.32
2023-02-08T21:01:34.575Z,62.38
2023-02-08T21:04:01.302Z,62.54
2023-02-08T21:06:29.887Z,62.57
2023-02-08T21:08:57.926Z,62.43
2023-02-08T21:11:27.583Z,62.11
2023-02-08T21:13:54.814Z,61.99
2023-02-08T21:16:21.633Z,62.64
2023-02-08T21:18:48.227Z,63.02
2023-02-08T21:21:15.355Z,62.72
2023-02-08T21:23:42.893Z,62.73
2023-02-08T21:26:12.962Z,62.64
2023-02-08T21:28:39.670Z,62.50
2023-02-08T21:31:13.294Z,62.56
2023-02-08T21:33:39.975Z,62.52
2023-02-08T21:36:10.398Z,62.24
2023-02-08T21:38:37.200Z,61.90
2023-02-08T21:41:14.457Z,62.17
2023-02-08T21:43:41.004Z,62.33
2023-02-08T21:46:08.830Z,62.33
2023-02-08T21:48:55.810Z,62.55
2023-02-08T21:51:42.041Z,63.08
2023-02-08T21:54:29.742Z,62.58
2023-02-08T21:56:58.500Z,63.41
2023-02-08T21:59:25.297Z,63.07
2023-02-08T22:01:51.840Z,63.49
2023-02-08T22:04:18.495Z,63.37
2023-02-08T22:06:45.182Z,63.20
2023-02-08T22:09:11.727Z,63.57
2023-02-08T22:11:38.242Z,63.29
2023-02-08T22:14:04.806Z,62.40
2023-02-08T22:16:31.321Z,63.20
2023-02-08T22:18:57.881Z,63.88
2023-02-08T22:21:24.487Z,63.02
2023-02-08T22:23:51.859Z,63.39
2023-02-08T22:26:18.519Z,63.57
2023-02-08T22:28:45.105Z,63.67
2023-02-08T22:31:13.762Z,63.45
2023-02-08T22:33:40.386Z,63.96
2023-02-08T22:36:08.834Z,64.12
2023-02-08T22:38:35.892Z,64.68
2023-02-08T22:41:02.451Z,63.90
2023-02-08T22:43:29.312Z,64.25
2023-02-08T22:45:58.097Z,64.48
2023-02-08T22:48:24.862Z,63.70
2023-02-08T22:50:51.392Z,64.44
2023-02-08T22:53:19.817Z,64.23
2023-02-08T22:55:56.124Z,64.14
2023-02-08T22:58:23.028Z,64.22
2023-02-08T23:00:49.693Z,64.87
2023-02-08T23:03:16.886Z,64.07
2023-02-08T23:05:46.150Z,64.16
2023-02-08T23:08:13.431Z,64.26
2023-02-08T23:10:40.256Z,64.20
2023-02-08T23:13:07.397Z,63.78
2023-02-08T23:15:37.253Z,64.03
2023-02-08T23:18:04.243Z,64.84
2023-02-08T23:20:30.854Z,64.53
2023-02-08T23:22:57.394Z,64.48
2023-02-08T23:25:23.930Z,64.66
2023-02-08T23:27:50.451Z,64.73
2023-02-08T23:30:17.059Z,64.68
2023-02-08T23:32:43.775Z,64.96
2023-02-08T23:35:10.501Z,64.62
2023-02-08T23:37:37.430Z,65.10
2023-02-08T23:40:04.913Z,64.43
2023-02-08T23:42:31.524Z,64.68
2023-02-08T23:44:59.939Z,64.75
2023-02-08T23:47:28.161Z,64.50
2023-02-08T23:49:54.742Z,64.93
2023-02-08T23:52:21.675Z,64.36
2023-02-08T23:54:48.262Z,64.99
2023-02-08T23:57:14.943Z,65.18
2023-02-08T23:59:41.702Z,65.06
